Time,TemperatureF,DewpointF,PressureIn,WindDirection,WindDirectionDegrees,WindSpeedMPH,WindSpeedGustMPH,Humidity,HourlyPrecipIn,Conditions,Clouds,dailyrainin,SoftwareType,DateUTC
2013-04-28 00:02:00,35.0,9.0,-100.00,NE,55,8.0,18.0,33,-99.99,,,-99.99,,2013-04-28 08:02:00,
2013-04-28 00:11:00,35.0,9.0,-100.00,NE,55,8.0,18.0,33,-99.99,,,-99.99,,2013-04-28 08:11:00,
2013-04-28 00:21:00,34.0,8.0,-100.00,NE,45,11.0,19.0,33,-99.99,,,-99.99,,2013-04-28 08:21:00,
2013-04-28 00:32:00,34.0,8.0,-100.00,NE,45,11.0,19.0,33,-99.99,,,-99.99,,2013-04-28 08:32:00,
2013-04-28 00:42:00,34.0,8.0,-100.00,NE,45,11.0,19.0,33,-99.99,,,-99.99,,2013-04-28 08:42:00,
2013-04-28 00:51:00,33.0,7.0,-100.00,NE,55,7.0,17.0,33,-99.99,,,-99.99,,2013-04-28 08:51:00,
2013-04-28 01:01:00,33.0,7.0,-100.00,NE,55,7.0,17.0,33,-99.99,,,-99.99,,2013-04-28 09:01:00,
2013-04-28 01:11:00,33.0,7.0,-100.00,NE,55,7.0,17.0,33,-99.99,,,-99.99,,2013-04-28 09:11:00,
2013-04-28 01:21:00,33.0,7.0,-100.00,East,90,7.0,16.0,33,-99.99,,,-99.99,,2013-04-28 09:21:00,
2013-04-28 01:32:00,33.0,7.0,-100.00,East,90,7.0,16.0,33,-99.99,,,-99.99,,2013-04-28 09:32:00,
2013-04-28 01:42:00,33.0,7.0,-100.00,East,90,7.0,16.0,33,-99.99,,,-99.99,,2013-04-28 09:42:00,
2013-04-28 01:53:00,33.0,7.0,-100.00,ENE,60,15.0,20.0,32,-99.99,,,-99.99,,2013-04-28 09:53:00,
2013-04-28 02:03:00,33.0,7.0,-100.00,ENE,60,15.0,20.0,32,-99.99,,,-99.99,,2013-04-28 10:03:00,
2013-04-28 02:12:00,33.0,7.0,-100.00,ENE,60,15.0,20.0,32,-99.99,,,-99.99,,2013-04-28 10:12:00,
2013-04-28 02:22:00,33.0,6.0,-100.00,NE,55,11.0,21.0,32,-99.99,,,-99.99,,2013-04-28 10:22:00,
2013-04-28 02:32:00,33.0,6.0,-100.00,NE,55,11.0,21.0,32,-99.99,,,-99.99,,2013-04-28 10:32:00,
2013-04-28 02:42:00,33.0,6.0,-100.00,NE,55,11.0,21.0,32,-99.99,,,-99.99,,2013-04-28 10:42:00,
2013-04-28 02:52:00,32.0,5.0,-100.00,NE,55,9.0,19.0,31,-99.99,,,-99.99,,2013-04-28 10:52:00,
2013-04-28 03:02:00,32.0,5.0,-100.00,NE,55,9.0,19.0,31,-99.99,,,-99.99,,2013-04-28 11:02:00,
2013-04-28 03:11:00,32.0,5.0,-100.00,NE,55,9.0,19.0,31,-99.99,,,-99.99,,2013-04-28 11:11:00,
2013-04-28 03:21:00,32.0,5.0,-100.00,NE,45,13.0,28.0,31,-99.99,,,-99.99,,2013-04-28 11:21:00,
2013-04-28 03:32:00,32.0,5.0,-100.00,NE,45,13.0,28.0,31,-99.99,,,-99.99,,2013-04-28 11:32:00,
2013-04-28 03:42:00,32.0,5.0,-100.00,NE,45,13.0,28.0,31,-99.99,,,-99.99,,2013-04-28 11:42:00,
2013-04-28 03:52:00,32.0,4.0,-100.00,ENE,75,11.0,19.0,30,-99.99,,,-99.99,,2013-04-28 11:52:00,
2013-04-28 04:01:00,32.0,4.0,-100.00,ENE,75,11.0,19.0,30,-99.99,,,-99.99,,2013-04-28 12:01:00,
2013-04-28 04:11:00,32.0,4.0,-100.00,ENE,75,11.0,19.0,30,-99.99,,,-99.99,,2013-04-28 12:11:00,
2013-04-28 04:21:00,31.0,4.0,-100.00,NE,50,7.0,12.0,31,-99.99,,,-99.99,,2013-04-28 12:21:00,
2013-04-28 04:32:00,31.0,4.0,-100.00,NE,50,7.0,12.0,31,-99.99,,,-99.99,,2013-04-28 12:32:00,
2013-04-28 04:42:00,31.0,4.0,-100.00,NE,50,7.0,12.0,31,-99.99,,,-99.99,,2013-04-28 12:42:00,
2013-04-28 04:52:00,31.0,4.0,-100.00,NE,35,6.0,9.0,31,-99.99,,,-99.99,,2013-04-28 12:52:00,
2013-04-28 05:02:00,31.0,4.0,-100.00,NE,35,6.0,9.0,31,-99.99,,,-99.99,,2013-04-28 13:02:00,
2013-04-28 05:11:00,31.0,4.0,-100.00,NE,35,6.0,9.0,31,-99.99,,,-99.99,,2013-04-28 13:11:00,
2013-04-28 05:21:00,29.0,3.0,-100.00,ENE,60,4.0,6.0,32,-99.99,,,-99.99,,2013-04-28 13:21:00,
2013-04-28 05:31:00,29.0,3.0,-100.00,ENE,60,4.0,6.0,32,-99.99,,,-99.99,,2013-04-28 13:31:00,
2013-04-28 05:42:00,29.0,3.0,-100.00,ENE,60,4.0,6.0,32,-99.99,,,-99.99,,2013-04-28 13:42:00,
2013-04-28 05:52:00,28.0,3.0,-100.00,NNE,15,1.0,2.0,34,-99.99,,,-99.99,,2013-04-28 13:52:00,
2013-04-28 06:01:00,28.0,3.0,-100.00,NNE,15,1.0,2.0,34,-99.99,,,-99.99,,2013-04-28 14:01:00,
2013-04-28 06:11:00,28.0,3.0,-100.00,NNE,15,1.0,2.0,34,-99.99,,,-99.99,,2013-04-28 14:11:00,
2013-04-28 06:21:00,27.0,3.0,-100.00,East,100,0.0,4.0,35,-99.99,,,-99.99,,2013-04-28 14:21:00,
2013-04-28 06:31:00,27.0,3.0,-100.00,East,100,0.0,4.0,35,-99.99,,,-99.99,,2013-04-28 14:31:00,
2013-04-28 06:42:00,27.0,3.0,-100.00,East,100,0.0,4.0,35,-99.99,,,-99.99,,2013-04-28 14:42:00,
2013-04-28 06:52:00,26.0,3.0,-100.00,East,90,1.0,2.0,37,-99.99,,,-99.99,,2013-04-28 14:52:00,
2013-04-28 07:01:00,26.0,3.0,-100.00,East,90,1.0,2.0,37,-99.99,,,-99.99,,2013-04-28 15:01:00,
2013-04-28 07:12:00,26.0,3.0,-100.00,East,90,1.0,2.0,37,-99.99,,,-99.99,,2013-04-28 15:12:00,
2013-04-28 07:21:00,27.0,6.0,-100.00,South,170,1.0,2.0,40,-99.99,,,-99.99,,2013-04-28 15:21:00,
2013-04-28 07:32:00,27.0,6.0,-100.00,South,170,1.0,2.0,40,-99.99,,,-99.99,,2013-04-28 15:32:00,
2013-04-28 07:42:00,27.0,6.0,-100.00,South,170,1.0,2.0,40,-99.99,,,-99.99,,2013-04-28 15:42:00,
2013-04-28 07:53:00,30.0,9.0,-100.00,WSW,240,2.0,4.0,41,-99.99,,,-99.99,,2013-04-28 15:53:00,
2013-04-28 08:03:00,30.0,9.0,-100.00,WSW,240,2.0,4.0,41,-99.99,,,-99.99,,2013-04-28 16:03:00,
2013-04-28 08:13:00,30.0,9.0,-100.00,WSW,240,2.0,4.0,41,-99.99,,,-99.99,,2013-04-28 16:13:00,
2013-04-28 08:23:00,31.0,9.0,-100.00,SW,225,3.0,7.0,38,-99.99,,,-99.99,,2013-04-28 16:23:00,
2013-04-28 08:32:00,31.0,9.0,-100.00,SW,225,3.0,7.0,38,-99.99,,,-99.99,,2013-04-28 16:32:00,
2013-04-28 08:42:00,31.0,9.0,-100.00,SW,225,3.0,7.0,38,-99.99,,,-99.99,,2013-04-28 16:42:00,
2013-04-28 08:52:00,35.0,11.0,-100.00,SW,225,6.0,8.0,36,-99.99,,,-99.99,,2013-04-28 16:52:00,
2013-04-28 09:21:00,36.0,11.0,-100.00,SW,235,6.0,9.0,34,-99.99,,,-99.99,,2013-04-28 17:21:00,
2013-04-28 09:42:00,36.0,11.0,-100.00,SW,235,6.0,9.0,34,-99.99,,,-99.99,,2013-04-28 17:42:00,
2013-04-28 09:51:00,36.0,10.0,-100.00,SW,220,3.0,8.0,33,-99.99,,,-99.99,,2013-04-28 17:51:00,
2013-04-28 10:02:00,36.0,10.0,-100.00,SW,220,3.0,8.0,33,-99.99,,,-99.99,,2013-04-28 18:02:00,
2013-04-28 10:12:00,36.0,10.0,-100.00,SW,220,3.0,8.0,33,-99.99,,,-99.99,,2013-04-28 18:12:00,
2013-04-28 10:32:00,38.0,11.0,-100.00,SSW,210,2.0,7.0,33,-99.99,,,-99.99,,2013-04-28 18:32:00,
2013-04-28 10:42:00,38.0,11.0,-100.00,SSW,210,2.0,7.0,33,-99.99,,,-99.99,,2013-04-28 18:42:00,
2013-04-28 10:52:00,39.0,10.0,-100.00,North,0,1.0,6.0,30,-99.99,,,-99.99,,2013-04-28 18:52:00,
2013-04-28 11:02:00,39.0,10.0,-100.00,North,0,1.0,6.0,30,-99.99,,,-99.99,,2013-04-28 19:02:00,
2013-04-28 11:11:00,39.0,10.0,-100.00,North,0,1.0,6.0,30,-99.99,,,-99.99,,2013-04-28 19:11:00,
2013-04-28 11:21:00,40.0,11.0,-100.00,North,0,2.0,6.0,29,-99.99,,,-99.99,,2013-04-28 19:21:00,
2013-04-28 11:31:00,40.0,11.0,-100.00,North,0,2.0,6.0,29,-99.99,,,-99.99,,2013-04-28 19:31:00,
2013-04-28 11:41:00,40.0,11.0,-100.00,North,0,2.0,6.0,29,-99.99,,,-99.99,,2013-04-28 19:41:00,
2013-04-28 11:52:00,42.0,10.0,-100.00,North,10,4.0,11.0,27,-99.99,,,-99.99,,2013-04-28 19:52:00,
2013-04-28 12:21:00,41.0,10.0,-100.00,NNE,30,6.0,14.0,26,-99.99,,,-99.99,,2013-04-28 20:21:00,
2013-04-28 12:32:00,41.0,10.0,-100.00,NNE,30,6.0,14.0,26,-99.99,,,-99.99,,2013-04-28 20:32:00,
2013-04-28 12:41:00,41.0,10.0,-100.00,NNE,30,6.0,14.0,26,-99.99,,,-99.99,,2013-04-28 20:41:00,
2013-04-28 13:21:00,45.0,12.0,-100.00,North,0,3.0,8.0,26,-99.99,,,-99.99,,2013-04-28 21:21:00,
2013-04-28 13:32:00,45.0,12.0,-100.00,North,0,3.0,8.0,26,-99.99,,,-99.99,,2013-04-28 21:32:00,
2013-04-28 13:42:00,45.0,12.0,-100.00,North,0,3.0,8.0,26,-99.99,,,-99.99,,2013-04-28 21:42:00,
2013-04-28 13:52:00,45.0,12.0,-100.00,North,0,3.0,7.0,25,-99.99,,,-99.99,,2013-04-28 21:52:00,
2013-04-28 14:02:00,45.0,12.0,-100.00,North,0,3.0,7.0,25,-99.99,,,-99.99,,2013-04-28 22:02:00,
2013-04-28 14:12:00,45.0,12.0,-100.00,North,0,3.0,7.0,25,-99.99,,,-99.99,,2013-04-28 22:12:00,
2013-04-28 14:22:00,45.0,12.0,-100.00,NE,35,1.0,9.0,25,-99.99,,,-99.99,,2013-04-28 22:22:00,
2013-04-28 14:33:00,45.0,12.0,-100.00,NE,35,1.0,9.0,25,-99.99,,,-99.99,,2013-04-28 22:33:00,
2013-04-28 14:42:00,45.0,12.0,-100.00,NE,35,1.0,9.0,25,-99.99,,,-99.99,,2013-04-28 22:42:00,
2013-04-28 14:52:00,44.0,10.0,-100.00,NE,40,6.0,13.0,24,-99.99,,,-99.99,,2013-04-28 22:52:00,
2013-04-28 15:02:00,44.0,10.0,-100.00,NE,40,6.0,13.0,24,-99.99,,,-99.99,,2013-04-28 23:02:00,
2013-04-28 15:12:00,44.0,10.0,-100.00,NE,40,6.0,13.0,24,-99.99,,,-99.99,,2013-04-28 23:12:00,
2013-04-28 15:21:00,44.0,11.0,-100.00,NE,40,5.0,12.0,24,-99.99,,,-99.99,,2013-04-28 23:21:00,
2013-04-28 15:32:00,44.0,11.0,-100.00,NE,40,5.0,12.0,24,-99.99,,,-99.99,,2013-04-28 23:32:00,
2013-04-28 15:41:00,44.0,11.0,-100.00,NE,40,5.0,12.0,24,-99.99,,,-99.99,,2013-04-28 23:41:00,
2013-04-28 15:51:00,46.0,13.0,-100.00,NNW,340,2.0,11.0,25,-99.99,,,-99.99,,2013-04-28 23:51:00,
2013-04-28 16:01:00,46.0,13.0,-100.00,NNW,340,2.0,11.0,25,-99.99,,,-99.99,,2013-04-29 00:01:00,
2013-04-28 16:11:00,46.0,13.0,-100.00,NNW,340,2.0,11.0,25,-99.99,,,-99.99,,2013-04-29 00:11:00,
2013-04-28 16:21:00,45.0,11.0,-100.00,ENE,60,4.0,10.0,24,-99.99,,,-99.99,,2013-04-29 00:21:00,
2013-04-28 16:32:00,45.0,11.0,-100.00,ENE,60,4.0,10.0,24,-99.99,,,-99.99,,2013-04-29 00:32:00,
2013-04-28 16:41:00,45.0,11.0,-100.00,ENE,60,4.0,10.0,24,-99.99,,,-99.99,,2013-04-29 00:41:00,
2013-04-28 16:52:00,45.0,11.0,-100.00,NE,45,6.0,11.0,24,-99.99,,,-99.99,,2013-04-29 00:52:00,
2013-04-28 17:01:00,45.0,11.0,-100.00,NE,45,6.0,11.0,24,-99.99,,,-99.99,,2013-04-29 01:01:00,
2013-04-28 17:12:00,45.0,11.0,-100.00,NE,45,6.0,11.0,24,-99.99,,,-99.99,,2013-04-29 01:12:00,
2013-04-28 17:21:00,46.0,13.0,-100.00,North,0,1.0,4.0,25,-99.99,,,-99.99,,2013-04-29 01:21:00,
2013-04-28 17:32:00,46.0,13.0,-100.00,North,0,1.0,4.0,25,-99.99,,,-99.99,,2013-04-29 01:32:00,
2013-04-28 17:41:00,46.0,13.0,-100.00,North,0,1.0,4.0,25,-99.99,,,-99.99,,2013-04-29 01:41:00,
2013-04-28 17:52:00,45.0,12.0,-100.00,NNW,335,1.0,3.0,25,-99.99,,,-99.99,,2013-04-29 01:52:00,
2013-04-28 18:01:00,45.0,12.0,-100.00,NNW,335,1.0,3.0,25,-99.99,,,-99.99,,2013-04-29 02:01:00,
2013-04-28 18:11:00,45.0,12.0,-100.00,NNW,335,1.0,3.0,25,-99.99,,,-99.99,,2013-04-29 02:11:00,
2013-04-28 18:21:00,43.0,11.0,-100.00,North,0,2.0,7.0,26,-99.99,,,-99.99,,2013-04-29 02:21:00,
2013-04-28 18:32:00,43.0,11.0,-100.00,North,0,2.0,7.0,26,-99.99,,,-99.99,,2013-04-29 02:32:00,
2013-04-28 18:41:00,43.0,11.0,-100.00,North,0,2.0,7.0,26,-99.99,,,-99.99,,2013-04-29 02:41:00,
2013-04-28 18:51:00,42.0,11.0,-100.00,NE,55,3.0,7.0,27,-99.99,,,-99.99,,2013-04-29 02:51:00,
2013-04-28 19:01:00,42.0,11.0,-100.00,NE,55,3.0,7.0,27,-99.99,,,-99.99,,2013-04-29 03:01:00,
2013-04-28 19:12:00,42.0,11.0,-100.00,NE,55,3.0,7.0,27,-99.99,,,-99.99,,2013-04-29 03:12:00,
2013-04-28 19:21:00,41.0,10.0,-100.00,West,265,0.0,2.0,27,-99.99,,,-99.99,,2013-04-29 03:21:00,
2013-04-28 19:33:00,41.0,10.0,-100.00,West,265,0.0,2.0,27,-99.99,,,-99.99,,2013-04-29 03:33:00,
2013-04-28 19:42:00,41.0,10.0,-100.00,West,265,0.0,2.0,27,-99.99,,,-99.99,,2013-04-29 03:42:00,
2013-04-28 19:52:00,41.0,10.0,-100.00,WNW,295,2.0,3.0,28,-99.99,,,-99.99,,2013-04-29 03:52:00,
2013-04-28 20:02:00,41.0,10.0,-100.00,WNW,295,2.0,3.0,28,-99.99,,,-99.99,,2013-04-29 04:02:00,
2013-04-28 20:12:00,41.0,10.0,-100.00,WNW,295,2.0,3.0,28,-99.99,,,-99.99,,2013-04-29 04:12:00,
2013-04-28 20:23:00,40.0,11.0,-100.00,East,100,0.0,2.0,29,-99.99,,,-99.99,,2013-04-29 04:23:00,
2013-04-28 20:33:00,40.0,11.0,-100.00,East,100,0.0,2.0,29,-99.99,,,-99.99,,2013-04-29 04:33:00,
2013-04-28 20:43:00,40.0,11.0,-100.00,East,100,0.0,2.0,29,-99.99,,,-99.99,,2013-04-29 04:43:00,
2013-04-28 20:52:00,39.0,10.0,-100.00,East,95,0.0,1.0,29,-99.99,,,-99.99,,2013-04-29 04:52:00,
2013-04-28 21:02:00,39.0,10.0,-100.00,East,95,0.0,1.0,29,-99.99,,,-99.99,,2013-04-29 05:02:00,
2013-04-28 21:12:00,39.0,10.0,-100.00,East,95,0.0,1.0,29,-99.99,,,-99.99,,2013-04-29 05:12:00,
2013-04-28 21:22:00,39.0,9.0,-100.00,SSW,195,1.0,2.0,28,-99.99,,,-99.99,,2013-04-29 05:22:00,
2013-04-28 21:32:00,39.0,9.0,-100.00,SSW,195,1.0,2.0,28,-99.99,,,-99.99,,2013-04-29 05:32:00,
2013-04-28 21:42:00,39.0,9.0,-100.00,SSW,195,1.0,2.0,28,-99.99,,,-99.99,,2013-04-29 05:42:00,
2013-04-28 21:52:00,38.0,9.0,-100.00,WNW,285,0.0,1.0,30,-99.99,,,-99.99,,2013-04-29 05:52:00,
2013-04-28 22:02:00,38.0,9.0,-100.00,WNW,285,0.0,1.0,30,-99.99,,,-99.99,,2013-04-29 06:02:00,
2013-04-28 22:11:00,38.0,9.0,-100.00,WNW,285,0.0,1.0,30,-99.99,,,-99.99,,2013-04-29 06:11:00,
2013-04-28 22:21:00,36.0,11.0,-100.00,NNW,335,1.0,3.0,34,-99.99,,,-99.99,,2013-04-29 06:21:00,
2013-04-28 22:32:00,36.0,11.0,-100.00,NNW,335,1.0,3.0,34,-99.99,,,-99.99,,2013-04-29 06:32:00,
2013-04-28 22:42:00,36.0,11.0,-100.00,NNW,335,1.0,3.0,34,-99.99,,,-99.99,,2013-04-29 06:42:00,
2013-04-28 22:51:00,35.0,12.0,-100.00,WNW,290,0.0,1.0,38,-99.99,,,-99.99,,2013-04-29 06:51:00,
2013-04-28 23:01:00,35.0,12.0,-100.00,WNW,290,0.0,1.0,38,-99.99,,,-99.99,,2013-04-29 07:01:00,
2013-04-28 23:11:00,35.0,12.0,-100.00,WNW,290,0.0,1.0,38,-99.99,,,-99.99,,2013-04-29 07:11:00,
2013-04-28 23:21:00,33.0,12.0,-100.00,South,185,2.0,2.0,42,-99.99,,,-99.99,,2013-04-29 07:21:00,
2013-04-28 23:31:00,33.0,12.0,-100.00,South,185,2.0,2.0,42,-99.99,,,-99.99,,2013-04-29 07:31:00,
2013-04-28 23:41:00,33.0,12.0,-100.00,South,185,2.0,2.0,42,-99.99,,,-99.99,,2013-04-29 07:41:00,
2013-04-28 23:52:00,31.0,13.0,-100.00,SSW,210,1.0,2.0,47,-99.99,,,-99.99,,2013-04-29 07:52:00,